SÍGUENOS

APP INUMET

Disponible en Google Play

Productos aeronáuticos

  • SIGMET
  • METAR / SPECI
  • TAF
  • AIREP
  • Aviso de aeródromo
  • Pronárea
  • Carta superficie

Mensajes METAR de la última hora

SULS 200100Z 14004KT 9999 FEW012 21/19 Q1015
SUMU 200100Z 14008KT CAVOK 22/18 Q1015 NOSIG

Mensajes METAR de la última hora - Internacionales


Argentina
SAAR 200100Z 36002KT CAVOK 27/20 Q1013
SABE 200100Z 11015KT CAVOK 25/18 Q1014
SACO 200100Z 35005KT CAVOK 20/13 Q1015
SAEZ 200100Z 09010KT CAVOK 24/18 Q1014
SAME 200100Z 32008KT 9999 SCT045 FEW050CB 28/08 Q1012
Bolivia
SLLP 200100Z 08007KT 9999 FEW010 FEW017CB BKN200 07/05 Q1037
Brasil
SBSP 200102Z 06003KT 030V090 CAVOK 22/18 Q1019
SBBR 200100Z 11004KT 070V240 CAVOK 24/13 Q1018
SBFI 200100Z 15002KT 9999 FEW035TCU BKN080 24/24 Q1014
SBFL 200100Z 15004KT 9999 FEW047 BKN083 24/21 Q1016
SBGR 200100Z 19002KT CAVOK 19/19 Q1019
SBPA 200100Z 10012KT CAVOK 23/19 Q1015
SBRJ 200100Z 13003KT 9999 FEW025 SCT090 26/24 Q1015
SBSP 200100Z 10002KT CAVOK 22/18 Q1019
Chile
SCCI 200100Z 25021KT 9999 FEW040 SCT080 12/05 Q0999 NOSIG
SCEL 200100Z 16008KT 9999 FEW180 SCT200 23/12 Q1011 NOSIG
Ecuador
SEQM 200100Z 02007KT 9999 FEW010 BKN030 BKN100 14/13 Q1023 NOSIG RMK A3022
EEUU
KMIA 200053Z 01003KT 10SM FEW040 SCT200 BKN250 19/11 A3021 RMK AO2 SLP231 T01890111
KDCA 200052Z 18006KT 10SM CLR 03/M06 A3005 RMK AO2 SLP175 T00331056
KIAD 200052Z 17004KT 10SM CLR 03/M11 A3003 RMK AO2 SLP173 T00331106
KJFK 200051Z 22005KT 10SM FEW250 00/M05 A3000 RMK AO2 SLP160 T00001050
KLGA 200051Z 23008KT 10SM SCT260 04/M08 A2999 RMK AO2 SLP153 T00391078
Francia
LFPO 200100Z 21006KT CAVOK 03/01 Q1014 NOSIG
LFPO 200030Z 23007KT CAVOK 03/01 Q1014 NOSIG
Paraguay
SGAS 200100Z 08004KT CAVOK 25/23 Q1012
Venezuela
SVMI 200100Z 00000KT 9999 FEW016 25/22 Q1011

* Datos extraidos del Text DataServer de la NOAA (NOAA TEXT DATA SERVER)

Instituto Uruguayo de Meteorología

Dr. Javier Barrios Amorín 1488 - CP 11200
Mesa Central (598) 1895 - Desde el interior 21895

Montevideo - Uruguay